sensor_id;sensor_type;location;lat;lon;timestamp;temperature;humidity
44705;DHT22;30431;48.520;9.046;2024-03-07T00:00:47;7.10;99.90
44705;DHT22;30431;48.520;9.046;2024-03-07T00:03:14;7.00;99.90
44705;DHT22;30431;48.520;9.046;2024-03-07T00:05:46;7.10;99.90
44705;DHT22;30431;48.520;9.046;2024-03-07T00:08:15;7.20;99.90
44705;DHT22;30431;48.520;9.046;2024-03-07T00:10:42;7.30;99.90
44705;DHT22;30431;48.520;9.046;2024-03-07T00:13:13;7.30;99.90
44705;DHT22;30431;48.520;9.046;2024-03-07T00:15:40;7.30;99.90
44705;DHT22;30431;48.520;9.046;2024-03-07T00:18:08;7.20;99.90
44705;DHT22;30431;48.520;9.046;2024-03-07T00:20:42;7.30;99.90
44705;DHT22;30431;48.520;9.046;2024-03-07T00:23:12;7.30;99.90
44705;DHT22;30431;48.520;9.046;2024-03-07T00:25:39;7.30;99.90
44705;DHT22;30431;48.520;9.046;2024-03-07T00:28:05;7.30;99.90
44705;DHT22;30431;48.520;9.046;2024-03-07T00:30:38;7.40;99.90
44705;DHT22;30431;48.520;9.046;2024-03-07T00:33:07;7.40;99.90
44705;DHT22;30431;48.520;9.046;2024-03-07T00:35:37;7.50;99.90
44705;DHT22;30431;48.520;9.046;2024-03-07T00:38:06;7.40;99.90
44705;DHT22;30431;48.520;9.046;2024-03-07T00:40:35;7.30;99.90
44705;DHT22;30431;48.520;9.046;2024-03-07T00:43:07;7.30;99.90
44705;DHT22;30431;48.520;9.046;2024-03-07T00:45:34;7.30;99.90
44705;DHT22;30431;48.520;9.046;2024-03-07T00:48:01;7.20;99.90
44705;DHT22;30431;48.520;9.046;2024-03-07T00:50:28;7.30;99.90
44705;DHT22;30431;48.520;9.046;2024-03-07T00:52:57;7.30;99.90
44705;DHT22;30431;48.520;9.046;2024-03-07T00:55:24;7.20;99.90
44705;DHT22;30431;48.520;9.046;2024-03-07T00:57:54;7.10;99.90
44705;DHT22;30431;48.520;9.046;2024-03-07T01:00:21;7.10;99.90
44705;DHT22;30431;48.520;9.046;2024-03-07T01:02:48;7.00;99.90
44705;DHT22;30431;48.520;9.046;2024-03-07T01:05:15;7.00;99.90
44705;DHT22;30431;48.520;9.046;2024-03-07T01:07:44;7.00;99.90
44705;DHT22;30431;48.520;9.046;2024-03-07T01:10:14;6.90;99.90
44705;DHT22;30431;48.520;9.046;2024-03-07T01:12:44;7.00;99.90
44705;DHT22;30431;48.520;9.046;2024-03-07T01:15:16;7.00;99.90
44705;DHT22;30431;48.520;9.046;2024-03-07T01:17:45;7.00;99.90
44705;DHT22;30431;48.520;9.046;2024-03-07T01:20:12;6.80;99.90
44705;DHT22;30431;48.520;9.046;2024-03-07T01:22:39;6.80;99.90
44705;DHT22;30431;48.520;9.046;2024-03-07T01:25:06;6.90;99.90
44705;DHT22;30431;48.520;9.046;2024-03-07T01:27:33;6.80;99.90
44705;DHT22;30431;48.520;9.046;2024-03-07T01:30:01;6.80;99.90
44705;DHT22;30431;48.520;9.046;2024-03-07T01:32:28;6.80;99.90
44705;DHT22;30431;48.520;9.046;2024-03-07T01:34:56;6.80;99.90
44705;DHT22;30431;48.520;9.046;2024-03-07T01:37:23;6.70;99.90
44705;DHT22;30431;48.520;9.046;2024-03-07T01:39:50;6.70;99.90
44705;DHT22;30431;48.520;9.046;2024-03-07T01:42:17;6.70;99.90
44705;DHT22;30431;48.520;9.046;2024-03-07T01:44:44;6.70;99.90
44705;DHT22;30431;48.520;9.046;2024-03-07T01:47:14;6.70;99.90
44705;DHT22;30431;48.520;9.046;2024-03-07T01:49:42;6.70;99.90
44705;DHT22;30431;48.520;9.046;2024-03-07T01:52:14;6.60;99.90
44705;DHT22;30431;48.520;9.046;2024-03-07T01:54:44;6.60;99.90
44705;DHT22;30431;48.520;9.046;2024-03-07T01:57:11;6.60;99.90
44705;DHT22;30431;48.520;9.046;2024-03-07T01:59:43;6.60;99.90
44705;DHT22;30431;48.520;9.046;2024-03-07T02:02:10;6.50;99.90
44705;DHT22;30431;48.520;9.046;2024-03-07T02:04:41;6.50;99.90
44705;DHT22;30431;48.520;9.046;2024-03-07T02:07:09;6.40;99.90
44705;DHT22;30431;48.520;9.046;2024-03-07T02:09:38;6.40;99.90
44705;DHT22;30431;48.520;9.046;2024-03-07T02:12:05;6.30;99.90
44705;DHT22;30431;48.520;9.046;2024-03-07T02:14:33;6.20;99.90
44705;DHT22;30431;48.520;9.046;2024-03-07T02:17:00;6.20;99.90
44705;DHT22;30431;48.520;9.046;2024-03-07T02:19:27;6.10;99.90
44705;DHT22;30431;48.520;9.046;2024-03-07T02:21:54;6.10;99.90
44705;DHT22;30431;48.520;9.046;2024-03-07T02:24:21;6.10;99.90
44705;DHT22;30431;48.520;9.046;2024-03-07T02:26:51;6.00;99.90
44705;DHT22;30431;48.520;9.046;2024-03-07T02:29:20;5.90;99.90
44705;DHT22;30431;48.520;9.046;2024-03-07T02:31:47;5.90;99.90
44705;DHT22;30431;48.520;9.046;2024-03-07T02:34:14;5.80;99.90
44705;DHT22;30431;48.520;9.046;2024-03-07T02:36:41;5.80;99.90
44705;DHT22;30431;48.520;9.046;2024-03-07T02:39:08;5.80;99.90
44705;DHT22;30431;48.520;9.046;2024-03-07T02:41:36;5.70;99.90
44705;DHT22;30431;48.520;9.046;2024-03-07T02:44:05;5.70;99.90
44705;DHT22;30431;48.520;9.046;2024-03-07T02:46:32;5.40;99.90
44705;DHT22;30431;48.520;9.046;2024-03-07T02:48:59;5.30;99.90
44705;DHT22;30431;48.520;9.046;2024-03-07T02:51:27;5.30;99.90
44705;DHT22;30431;48.520;9.046;2024-03-07T02:53:56;5.30;99.90
44705;DHT22;30431;48.520;9.046;2024-03-07T02:56:24;5.20;99.90
44705;DHT22;30431;48.520;9.046;2024-03-07T02:58:54;5.20;99.90
44705;DHT22;30431;48.520;9.046;2024-03-07T03:01:24;5.20;99.90
44705;DHT22;30431;48.520;9.046;2024-03-07T03:03:51;5.10;99.90
44705;DHT22;30431;48.520;9.046;2024-03-07T03:06:18;4.90;99.90
44705;DHT22;30431;48.520;9.046;2024-03-07T03:08:47;4.90;99.90
44705;DHT22;30431;48.520;9.046;2024-03-07T03:11:17;4.90;99.90
44705;DHT22;30431;48.520;9.046;2024-03-07T03:13:47;4.90;99.90
44705;DHT22;30431;48.520;9.046;2024-03-07T03:16:17;5.00;99.90
44705;DHT22;30431;48.520;9.046;2024-03-07T03:19:00;4.90;99.90
44705;DHT22;30431;48.520;9.046;2024-03-07T03:21:27;4.70;99.90
44705;DHT22;30431;48.520;9.046;2024-03-07T03:23:54;4.70;99.90
44705;DHT22;30431;48.520;9.046;2024-03-07T03:26:21;4.50;99.90
44705;DHT22;30431;48.520;9.046;2024-03-07T03:28:51;4.40;99.90
44705;DHT22;30431;48.520;9.046;2024-03-07T03:31:19;4.40;99.90
44705;DHT22;30431;48.520;9.046;2024-03-07T03:33:46;4.30;99.90
44705;DHT22;30431;48.520;9.046;2024-03-07T03:36:13;4.20;99.90
44705;DHT22;30431;48.520;9.046;2024-03-07T03:38:43;4.10;99.90
44705;DHT22;30431;48.520;9.046;2024-03-07T03:41:16;4.00;99.90
44705;DHT22;30431;48.520;9.046;2024-03-07T03:43:44;3.90;99.90
44705;DHT22;30431;48.520;9.046;2024-03-07T03:46:11;3.80;99.90
44705;DHT22;30431;48.520;9.046;2024-03-07T03:48:41;3.80;99.90
44705;DHT22;30431;48.520;9.046;2024-03-07T03:51:10;3.80;99.90
44705;DHT22;30431;48.520;9.046;2024-03-07T03:53:42;3.80;99.90
44705;DHT22;30431;48.520;9.046;2024-03-07T03:56:10;3.80;99.90
44705;DHT22;30431;48.520;9.046;2024-03-07T03:58:42;3.70;99.90
44705;DHT22;30431;48.520;9.046;2024-03-07T04:01:09;3.60;99.90
44705;DHT22;30431;48.520;9.046;2024-03-07T04:03:40;3.50;99.90
44705;DHT22;30431;48.520;9.046;2024-03-07T04:06:07;3.50;99.90
44705;DHT22;30431;48.520;9.046;2024-03-07T04:08:34;3.40;99.90
44705;DHT22;30431;48.520;9.046;2024-03-07T04:11:04;3.40;99.90
44705;DHT22;30431;48.520;9.046;2024-03-07T04:13:31;3.40;99.90
44705;DHT22;30431;48.520;9.046;2024-03-07T04:16:01;3.40;99.90
44705;DHT22;30431;48.520;9.046;2024-03-07T04:18:27;3.40;99.90
44705;DHT22;30431;48.520;9.046;2024-03-07T04:20:54;3.30;99.90
44705;DHT22;30431;48.520;9.046;2024-03-07T04:23:21;3.30;99.90
44705;DHT22;30431;48.520;9.046;2024-03-07T04:25:48;3.20;99.90
44705;DHT22;30431;48.520;9.046;2024-03-07T04:28:20;3.10;99.90
44705;DHT22;30431;48.520;9.046;2024-03-07T04:30:48;3.10;99.90
44705;DHT22;30431;48.520;9.046;2024-03-07T04:33:16;3.00;99.90
44705;DHT22;30431;48.520;9.046;2024-03-07T04:35:43;2.90;99.90
44705;DHT22;30431;48.520;9.046;2024-03-07T04:38:10;2.90;99.90
44705;DHT22;30431;48.520;9.046;2024-03-07T04:40:42;2.90;99.90
44705;DHT22;30431;48.520;9.046;2024-03-07T04:43:09;2.90;99.90
44705;DHT22;30431;48.520;9.046;2024-03-07T04:45:37;2.90;99.90
44705;DHT22;30431;48.520;9.046;2024-03-07T04:48:07;3.00;99.90
44705;DHT22;30431;48.520;9.046;2024-03-07T04:50:35;3.00;99.90
44705;DHT22;30431;48.520;9.046;2024-03-07T04:53:02;3.00;99.90
44705;DHT22;30431;48.520;9.046;2024-03-07T04:55:29;3.10;99.90
44705;DHT22;30431;48.520;9.046;2024-03-07T04:57:58;3.10;99.90
44705;DHT22;30431;48.520;9.046;2024-03-07T05:00:27;3.20;99.90
44705;DHT22;30431;48.520;9.046;2024-03-07T05:02:58;3.30;99.90
44705;DHT22;30431;48.520;9.046;2024-03-07T05:05:27;3.30;99.90
44705;DHT22;30431;48.520;9.046;2024-03-07T05:07:55;3.30;99.90
44705;DHT22;30431;48.520;9.046;2024-03-07T05:10:24;3.20;99.90
44705;DHT22;30431;48.520;9.046;2024-03-07T05:12:57;3.30;99.90
44705;DHT22;30431;48.520;9.046;2024-03-07T05:15:31;3.30;99.90
44705;DHT22;30431;48.520;9.046;2024-03-07T05:18:03;3.40;99.90
44705;DHT22;30431;48.520;9.046;2024-03-07T05:20:34;3.40;99.90
44705;DHT22;30431;48.520;9.046;2024-03-07T05:23:01;3.50;99.90
44705;DHT22;30431;48.520;9.046;2024-03-07T05:25:30;3.60;99.90
44705;DHT22;30431;48.520;9.046;2024-03-07T05:27:57;3.70;99.90
44705;DHT22;30431;48.520;9.046;2024-03-07T05:30:25;3.80;99.90
44705;DHT22;30431;48.520;9.046;2024-03-07T05:32:52;4.00;99.90
44705;DHT22;30431;48.520;9.046;2024-03-07T05:35:20;4.10;99.90
44705;DHT22;30431;48.520;9.046;2024-03-07T05:37:51;4.20;99.90
44705;DHT22;30431;48.520;9.046;2024-03-07T05:40:21;4.20;99.90
44705;DHT22;30431;48.520;9.046;2024-03-07T05:42:48;4.30;99.90
44705;DHT22;30431;48.520;9.046;2024-03-07T05:45:17;4.40;99.90
44705;DHT22;30431;48.520;9.046;2024-03-07T05:47:45;4.50;99.90
44705;DHT22;30431;48.520;9.046;2024-03-07T05:50:14;4.50;99.90
44705;DHT22;30431;48.520;9.046;2024-03-07T05:52:43;4.50;99.90
44705;DHT22;30431;48.520;9.046;2024-03-07T05:55:11;4.40;99.90
44705;DHT22;30431;48.520;9.046;2024-03-07T05:57:40;4.50;99.90
44705;DHT22;30431;48.520;9.046;2024-03-07T06:00:12;4.50;99.90
44705;DHT22;30431;48.520;9.046;2024-03-07T06:02:42;4.60;99.90
44705;DHT22;30431;48.520;9.046;2024-03-07T06:05:11;4.50;99.90
44705;DHT22;30431;48.520;9.046;2024-03-07T06:07:43;4.50;99.90
44705;DHT22;30431;48.520;9.046;2024-03-07T06:10:11;4.40;99.90
44705;DHT22;30431;48.520;9.046;2024-03-07T06:12:38;4.50;99.90
44705;DHT22;30431;48.520;9.046;2024-03-07T06:15:22;4.40;99.90
44705;DHT22;30431;48.520;9.046;2024-03-07T06:17:49;4.60;99.90
44705;DHT22;30431;48.520;9.046;2024-03-07T06:20:16;4.70;99.90
44705;DHT22;30431;48.520;9.046;2024-03-07T06:22:55;4.90;99.90
44705;DHT22;30431;48.520;9.046;2024-03-07T06:25:25;4.80;99.90
44705;DHT22;30431;48.520;9.046;2024-03-07T06:28:13;4.90;99.90
44705;DHT22;30431;48.520;9.046;2024-03-07T06:30:44;5.00;99.90
44705;DHT22;30431;48.520;9.046;2024-03-07T06:33:12;5.00;99.90
44705;DHT22;30431;48.520;9.046;2024-03-07T06:35:40;5.10;99.90
44705;DHT22;30431;48.520;9.046;2024-03-07T06:38:09;5.10;99.90
44705;DHT22;30431;48.520;9.046;2024-03-07T06:40:40;5.00;99.90
44705;DHT22;30431;48.520;9.046;2024-03-07T06:43:09;5.00;99.90
44705;DHT22;30431;48.520;9.046;2024-03-07T06:45:40;5.10;99.90
44705;DHT22;30431;48.520;9.046;2024-03-07T06:48:08;5.10;99.90
44705;DHT22;30431;48.520;9.046;2024-03-07T06:50:37;5.10;99.90
44705;DHT22;30431;48.520;9.046;2024-03-07T06:53:05;5.00;99.90
44705;DHT22;30431;48.520;9.046;2024-03-07T06:55:35;4.80;99.90
44705;DHT22;30431;48.520;9.046;2024-03-07T06:58:05;4.70;99.90
44705;DHT22;30431;48.520;9.046;2024-03-07T07:00:32;4.80;99.90
44705;DHT22;30431;48.520;9.046;2024-03-07T07:03:04;4.80;99.90
44705;DHT22;30431;48.520;9.046;2024-03-07T07:05:39;4.90;99.90
44705;DHT22;30431;48.520;9.046;2024-03-07T07:08:07;4.70;99.90
44705;DHT22;30431;48.520;9.046;2024-03-07T07:10:35;4.70;99.90
44705;DHT22;30431;48.520;9.046;2024-03-07T07:13:03;4.60;99.90
44705;DHT22;30431;48.520;9.046;2024-03-07T07:15:31;4.80;99.90
44705;DHT22;30431;48.520;9.046;2024-03-07T07:17:59;4.80;99.90
44705;DHT22;30431;48.520;9.046;2024-03-07T07:20:26;4.70;99.90
44705;DHT22;30431;48.520;9.046;2024-03-07T07:22:54;4.60;99.90
44705;DHT22;30431;48.520;9.046;2024-03-07T07:25:21;4.40;99.90
44705;DHT22;30431;48.520;9.046;2024-03-07T07:27:50;4.40;99.90
44705;DHT22;30431;48.520;9.046;2024-03-07T07:30:22;4.40;99.90
44705;DHT22;30431;48.520;9.046;2024-03-07T07:32:56;4.40;99.90
44705;DHT22;30431;48.520;9.046;2024-03-07T07:35:23;4.50;99.90
44705;DHT22;30431;48.520;9.046;2024-03-07T07:37:51;4.50;99.90
44705;DHT22;30431;48.520;9.046;2024-03-07T07:40:24;4.60;99.90
44705;DHT22;30431;48.520;9.046;2024-03-07T07:42:53;4.70;99.90
44705;DHT22;30431;48.520;9.046;2024-03-07T07:45:22;4.90;99.90
44705;DHT22;30431;48.520;9.046;2024-03-07T07:47:54;4.90;99.90
44705;DHT22;30431;48.520;9.046;2024-03-07T07:50:25;4.90;99.90
44705;DHT22;30431;48.520;9.046;2024-03-07T07:52:58;4.80;99.90
44705;DHT22;30431;48.520;9.046;2024-03-07T07:55:29;4.80;99.90
44705;DHT22;30431;48.520;9.046;2024-03-07T07:58:00;4.70;99.90
44705;DHT22;30431;48.520;9.046;2024-03-07T08:00:28;4.70;99.90
44705;DHT22;30431;48.520;9.046;2024-03-07T08:03:00;4.90;99.90
44705;DHT22;30431;48.520;9.046;2024-03-07T08:05:35;4.90;99.90
44705;DHT22;30431;48.520;9.046;2024-03-07T08:08:07;4.90;99.90
44705;DHT22;30431;48.520;9.046;2024-03-07T08:10:35;4.80;99.90
44705;DHT22;30431;48.520;9.046;2024-03-07T08:13:05;4.90;99.90
44705;DHT22;30431;48.520;9.046;2024-03-07T08:15:40;4.90;99.90
44705;DHT22;30431;48.520;9.046;2024-03-07T08:18:07;4.80;99.90
44705;DHT22;30431;48.520;9.046;2024-03-07T08:20:39;4.80;99.90
44705;DHT22;30431;48.520;9.046;2024-03-07T08:23:08;4.90;99.90
44705;DHT22;30431;48.520;9.046;2024-03-07T08:25:36;5.00;99.90
44705;DHT22;30431;48.520;9.046;2024-03-07T08:28:06;5.00;99.90
44705;DHT22;30431;48.520;9.046;2024-03-07T08:30:34;4.90;99.90
44705;DHT22;30431;48.520;9.046;2024-03-07T08:33:02;5.10;99.90
44705;DHT22;30431;48.520;9.046;2024-03-07T08:35:33;5.20;99.90
44705;DHT22;30431;48.520;9.046;2024-03-07T08:38:02;5.20;99.90
44705;DHT22;30431;48.520;9.046;2024-03-07T08:40:31;5.30;99.90
44705;DHT22;30431;48.520;9.046;2024-03-07T08:43:00;5.40;99.90
44705;DHT22;30431;48.520;9.046;2024-03-07T08:45:28;5.40;99.90
44705;DHT22;30431;48.520;9.046;2024-03-07T08:47:56;5.40;99.90
44705;DHT22;30431;48.520;9.046;2024-03-07T08:50:30;5.50;99.90
44705;DHT22;30431;48.520;9.046;2024-03-07T08:52:58;5.60;99.90
44705;DHT22;30431;48.520;9.046;2024-03-07T08:55:28;5.60;99.90
44705;DHT22;30431;48.520;9.046;2024-03-07T08:57:57;5.40;99.90
44705;DHT22;30431;48.520;9.046;2024-03-07T09:00:24;5.50;99.90
44705;DHT22;30431;48.520;9.046;2024-03-07T09:02:55;5.70;99.90
44705;DHT22;30431;48.520;9.046;2024-03-07T09:05:26;5.80;99.90
44705;DHT22;30431;48.520;9.046;2024-03-07T09:07:56;5.70;99.90
44705;DHT22;30431;48.520;9.046;2024-03-07T09:10:28;5.60;99.90
44705;DHT22;30431;48.520;9.046;2024-03-07T09:12:57;5.20;99.90
44705;DHT22;30431;48.520;9.046;2024-03-07T09:15:25;5.60;99.90
44705;DHT22;30431;48.520;9.046;2024-03-07T09:17:54;5.80;99.90
44705;DHT22;30431;48.520;9.046;2024-03-07T09:20:31;5.80;99.90
44705;DHT22;30431;48.520;9.046;2024-03-07T09:22:58;6.00;99.90
44705;DHT22;30431;48.520;9.046;2024-03-07T09:25:27;6.10;99.90
44705;DHT22;30431;48.520;9.046;2024-03-07T09:27:56;6.20;99.90
44705;DHT22;30431;48.520;9.046;2024-03-07T09:30:29;6.10;99.90
44705;DHT22;30431;48.520;9.046;2024-03-07T09:32:58;6.30;99.90
44705;DHT22;30431;48.520;9.046;2024-03-07T09:35:30;6.40;99.90
44705;DHT22;30431;48.520;9.046;2024-03-07T09:37:58;6.10;99.90
44705;DHT22;30431;48.520;9.046;2024-03-07T09:40:25;5.90;99.90
44705;DHT22;30431;48.520;9.046;2024-03-07T09:42:56;5.90;99.90
44705;DHT22;30431;48.520;9.046;2024-03-07T09:45:28;5.90;99.90
44705;DHT22;30431;48.520;9.046;2024-03-07T09:47:56;6.20;99.90
44705;DHT22;30431;48.520;9.046;2024-03-07T09:50:26;6.40;99.90
44705;DHT22;30431;48.520;9.046;2024-03-07T09:52:58;6.40;99.90
44705;DHT22;30431;48.520;9.046;2024-03-07T09:55:27;6.60;99.90
44705;DHT22;30431;48.520;9.046;2024-03-07T09:57:54;6.80;99.90
44705;DHT22;30431;48.520;9.046;2024-03-07T10:00:27;6.80;99.90
44705;DHT22;30431;48.520;9.046;2024-03-07T10:05:30;7.20;99.90
44705;DHT22;30431;48.520;9.046;2024-03-07T10:07:59;7.20;99.90
44705;DHT22;30431;48.520;9.046;2024-03-07T10:10:29;7.00;99.90
44705;DHT22;30431;48.520;9.046;2024-03-07T10:13:00;7.00;99.90
44705;DHT22;30431;48.520;9.046;2024-03-07T10:15:31;6.80;99.90
44705;DHT22;30431;48.520;9.046;2024-03-07T10:18:02;7.00;99.90
44705;DHT22;30431;48.520;9.046;2024-03-07T10:20:42;7.30;99.90
44705;DHT22;30431;48.520;9.046;2024-03-07T10:23:11;7.40;99.90
44705;DHT22;30431;48.520;9.046;2024-03-07T10:25:40;7.50;99.90
44705;DHT22;30431;48.520;9.046;2024-03-07T10:28:10;7.60;99.90
44705;DHT22;30431;48.520;9.046;2024-03-07T10:30:41;7.30;99.90
44705;DHT22;30431;48.520;9.046;2024-03-07T10:33:08;7.50;99.90
44705;DHT22;30431;48.520;9.046;2024-03-07T10:35:36;7.60;99.90
44705;DHT22;30431;48.520;9.046;2024-03-07T10:38:06;7.80;99.90
44705;DHT22;30431;48.520;9.046;2024-03-07T10:40:35;8.00;99.90
44705;DHT22;30431;48.520;9.046;2024-03-07T10:43:10;7.90;99.90
44705;DHT22;30431;48.520;9.046;2024-03-07T10:45:44;8.00;99.90
44705;DHT22;30431;48.520;9.046;2024-03-07T10:48:17;8.10;99.90
44705;DHT22;30431;48.520;9.046;2024-03-07T10:51:01;8.20;99.90
44705;DHT22;30431;48.520;9.046;2024-03-07T10:59:26;8.30;99.90
44705;DHT22;30431;48.520;9.046;2024-03-07T11:04:34;8.30;99.90
44705;DHT22;30431;48.520;9.046;2024-03-07T11:07:04;8.60;99.90
44705;DHT22;30431;48.520;9.046;2024-03-07T11:09:31;8.80;99.90
44705;DHT22;30431;48.520;9.046;2024-03-07T11:12:01;8.80;99.90
44705;DHT22;30431;48.520;9.046;2024-03-07T11:14:34;8.90;99.90
44705;DHT22;30431;48.520;9.046;2024-03-07T11:17:04;8.90;99.90
44705;DHT22;30431;48.520;9.046;2024-03-07T11:19:34;8.90;99.90
44705;DHT22;30431;48.520;9.046;2024-03-07T11:22:07;8.80;99.90
44705;DHT22;30431;48.520;9.046;2024-03-07T11:25:05;8.60;99.90
44705;DHT22;30431;48.520;9.046;2024-03-07T11:27:39;8.50;99.90
44705;DHT22;30431;48.520;9.046;2024-03-07T11:30:12;8.60;99.90
44705;DHT22;30431;48.520;9.046;2024-03-07T11:32:39;8.50;99.90
44705;DHT22;30431;48.520;9.046;2024-03-07T11:35:14;8.30;99.90
44705;DHT22;30431;48.520;9.046;2024-03-07T11:42:55;8.70;99.90
44705;DHT22;30431;48.520;9.046;2024-03-07T11:45:26;8.70;99.80
44705;DHT22;30431;48.520;9.046;2024-03-07T11:47:56;8.60;99.50
44705;DHT22;30431;48.520;9.046;2024-03-07T11:50:52;8.50;99.90
44705;DHT22;30431;48.520;9.046;2024-03-07T11:53:22;8.60;99.60
44705;DHT22;30431;48.520;9.046;2024-03-07T11:55:49;8.50;99.20
44705;DHT22;30431;48.520;9.046;2024-03-07T11:58:21;8.40;99.70
44705;DHT22;30431;48.520;9.046;2024-03-07T12:00:50;8.20;99.90
44705;DHT22;30431;48.520;9.046;2024-03-07T12:03:21;8.30;99.70
44705;DHT22;30431;48.520;9.046;2024-03-07T12:05:49;8.30;99.30
44705;DHT22;30431;48.520;9.046;2024-03-07T12:08:18;8.40;99.10
44705;DHT22;30431;48.520;9.046;2024-03-07T12:10:53;8.60;99.10
44705;DHT22;30431;48.520;9.046;2024-03-07T12:13:26;8.40;99.90
44705;DHT22;30431;48.520;9.046;2024-03-07T12:15:57;8.40;99.20
44705;DHT22;30431;48.520;9.046;2024-03-07T12:18:32;8.60;99.30
44705;DHT22;30431;48.520;9.046;2024-03-07T12:20:59;9.00;98.60
44705;DHT22;30431;48.520;9.046;2024-03-07T12:23:30;9.60;97.30
44705;DHT22;30431;48.520;9.046;2024-03-07T12:26:05;10.10;96.00
44705;DHT22;30431;48.520;9.046;2024-03-07T12:28:33;9.40;95.80
44705;DHT22;30431;48.520;9.046;2024-03-07T12:31:06;9.50;97.90
44705;DHT22;30431;48.520;9.046;2024-03-07T12:33:42;9.90;97.50
44705;DHT22;30431;48.520;9.046;2024-03-07T12:36:16;10.10;96.30
44705;DHT22;30431;48.520;9.046;2024-03-07T12:38:44;10.00;95.80
44705;DHT22;30431;48.520;9.046;2024-03-07T12:41:13;9.80;96.30
44705;DHT22;30431;48.520;9.046;2024-03-07T12:43:43;9.60;96.10
44705;DHT22;30431;48.520;9.046;2024-03-07T12:46:13;9.50;96.50
44705;DHT22;30431;48.520;9.046;2024-03-07T12:48:44;9.50;96.40
44705;DHT22;30431;48.520;9.046;2024-03-07T12:51:16;9.90;96.60
44705;DHT22;30431;48.520;9.046;2024-03-07T12:53:53;10.00;94.80
44705;DHT22;30431;48.520;9.046;2024-03-07T12:56:20;9.80;95.10
44705;DHT22;30431;48.520;9.046;2024-03-07T12:58:48;9.80;95.60
44705;DHT22;30431;48.520;9.046;2024-03-07T13:01:18;9.80;95.90
44705;DHT22;30431;48.520;9.046;2024-03-07T13:03:48;9.90;96.40
44705;DHT22;30431;48.520;9.046;2024-03-07T13:06:18;10.20;96.10
44705;DHT22;30431;48.520;9.046;2024-03-07T13:08:59;10.50;95.20
44705;DHT22;30431;48.520;9.046;2024-03-07T13:11:29;10.50;95.50
44705;DHT22;30431;48.520;9.046;2024-03-07T13:14:02;10.60;95.20
44705;DHT22;30431;48.520;9.046;2024-03-07T13:16:29;10.50;94.30
44705;DHT22;30431;48.520;9.046;2024-03-07T13:18:59;10.60;94.80
44705;DHT22;30431;48.520;9.046;2024-03-07T13:21:28;10.80;94.70
44705;DHT22;30431;48.520;9.046;2024-03-07T13:24:01;10.80;94.50
44705;DHT22;30431;48.520;9.046;2024-03-07T13:26:28;10.50;95.00
44705;DHT22;30431;48.520;9.046;2024-03-07T13:28:58;10.10;95.20
44705;DHT22;30431;48.520;9.046;2024-03-07T13:31:38;9.80;95.70
44705;DHT22;30431;48.520;9.046;2024-03-07T13:34:10;9.60;96.60
44705;DHT22;30431;48.520;9.046;2024-03-07T13:36:40;9.70;96.70
44705;DHT22;30431;48.520;9.046;2024-03-07T13:39:11;9.60;96.40
44705;DHT22;30431;48.520;9.046;2024-03-07T13:41:38;9.70;96.80
44705;DHT22;30431;48.520;9.046;2024-03-07T13:44:05;9.80;96.30
44705;DHT22;30431;48.520;9.046;2024-03-07T13:46:35;9.80;96.10
44705;DHT22;30431;48.520;9.046;2024-03-07T13:49:05;9.80;96.10
44705;DHT22;30431;48.520;9.046;2024-03-07T13:51:45;9.80;96.30
44705;DHT22;30431;48.520;9.046;2024-03-07T13:54:20;9.90;96.20
44705;DHT22;30431;48.520;9.046;2024-03-07T13:57:19;9.90;96.20
44705;DHT22;30431;48.520;9.046;2024-03-07T14:15:29;9.70;96.30
44705;DHT22;30431;48.520;9.046;2024-03-07T14:30:22;9.40;95.80
44705;DHT22;30431;48.520;9.046;2024-03-07T14:32:59;9.40;95.80
44705;DHT22;30431;48.520;9.046;2024-03-07T14:38:40;9.60;96.20
44705;DHT22;30431;48.520;9.046;2024-03-07T14:41:11;9.60;96.10
44705;DHT22;30431;48.520;9.046;2024-03-07T14:43:42;9.60;96.40
44705;DHT22;30431;48.520;9.046;2024-03-07T14:46:10;9.70;94.60
44705;DHT22;30431;48.520;9.046;2024-03-07T14:48:40;9.60;94.50
44705;DHT22;30431;48.520;9.046;2024-03-07T14:51:25;9.60;94.70
44705;DHT22;30431;48.520;9.046;2024-03-07T14:54:08;9.50;95.30
44705;DHT22;30431;48.520;9.046;2024-03-07T14:56:36;9.50;94.60
44705;DHT22;30431;48.520;9.046;2024-03-07T14:59:15;9.60;93.70
44705;DHT22;30431;48.520;9.046;2024-03-07T15:01:47;9.60;93.50
44705;DHT22;30431;48.520;9.046;2024-03-07T15:04:14;9.60;93.30
44705;DHT22;30431;48.520;9.046;2024-03-07T15:06:51;9.60;93.80
44705;DHT22;30431;48.520;9.046;2024-03-07T15:09:19;9.60;93.20
44705;DHT22;30431;48.520;9.046;2024-03-07T15:12:02;9.60;93.00
44705;DHT22;30431;48.520;9.046;2024-03-07T15:14:34;9.70;93.80
44705;DHT22;30431;48.520;9.046;2024-03-07T15:17:09;9.80;93.00
44705;DHT22;30431;48.520;9.046;2024-03-07T15:19:36;9.90;92.70
44705;DHT22;30431;48.520;9.046;2024-03-07T15:22:35;9.90;92.00
44705;DHT22;30431;48.520;9.046;2024-03-07T15:26:17;9.80;92.00
44705;DHT22;30431;48.520;9.046;2024-03-07T15:32:18;9.60;92.50
44705;DHT22;30431;48.520;9.046;2024-03-07T15:35:31;9.60;93.00
44705;DHT22;30431;48.520;9.046;2024-03-07T15:38:02;9.60;93.00
44705;DHT22;30431;48.520;9.046;2024-03-07T15:40:30;9.50;92.80
44705;DHT22;30431;48.520;9.046;2024-03-07T15:42:58;9.30;93.00
44705;DHT22;30431;48.520;9.046;2024-03-07T15:45:28;9.20;93.60
44705;DHT22;30431;48.520;9.046;2024-03-07T15:48:16;9.00;93.90
44705;DHT22;30431;48.520;9.046;2024-03-07T15:50:51;8.80;94.40
44705;DHT22;30431;48.520;9.046;2024-03-07T15:53:19;8.60;94.70
44705;DHT22;30431;48.520;9.046;2024-03-07T15:56:31;8.60;94.70
44705;DHT22;30431;48.520;9.046;2024-03-07T15:58:59;8.60;93.60
44705;DHT22;30431;48.520;9.046;2024-03-07T16:01:26;8.60;93.20
44705;DHT22;30431;48.520;9.046;2024-03-07T16:03:54;8.60;93.50
44705;DHT22;30431;48.520;9.046;2024-03-07T16:06:22;8.60;93.60
44705;DHT22;30431;48.520;9.046;2024-03-07T16:08:49;8.70;92.70
44705;DHT22;30431;48.520;9.046;2024-03-07T16:11:19;8.70;92.60
44705;DHT22;30431;48.520;9.046;2024-03-07T16:13:51;8.70;92.30
44705;DHT22;30431;48.520;9.046;2024-03-07T16:16:20;8.60;92.50
44705;DHT22;30431;48.520;9.046;2024-03-07T16:18:47;8.60;92.60
44705;DHT22;30431;48.520;9.046;2024-03-07T16:21:31;8.60;92.20
44705;DHT22;30431;48.520;9.046;2024-03-07T16:23:59;8.50;92.90
44705;DHT22;30431;48.520;9.046;2024-03-07T16:26:34;8.50;92.80
44705;DHT22;30431;48.520;9.046;2024-03-07T16:29:02;8.50;92.40
44705;DHT22;30431;48.520;9.046;2024-03-07T16:31:31;8.50;92.50
44705;DHT22;30431;48.520;9.046;2024-03-07T16:34:02;8.40;93.40
44705;DHT22;30431;48.520;9.046;2024-03-07T16:36:29;8.40;93.00
44705;DHT22;30431;48.520;9.046;2024-03-07T16:38:56;8.40;92.60
44705;DHT22;30431;48.520;9.046;2024-03-07T16:41:23;8.40;92.80
44705;DHT22;30431;48.520;9.046;2024-03-07T16:43:53;8.30;93.00
44705;DHT22;30431;48.520;9.046;2024-03-07T16:46:20;8.30;93.20
44705;DHT22;30431;48.520;9.046;2024-03-07T16:48:51;8.20;93.30
44705;DHT22;30431;48.520;9.046;2024-03-07T16:51:27;8.10;93.40
44705;DHT22;30431;48.520;9.046;2024-03-07T16:53:57;8.10;93.90
44705;DHT22;30431;48.520;9.046;2024-03-07T16:56:28;8.00;94.80